KDTW/DTW METAR and TAF weather

Enter ICAO airport designator
Station Type Date Time Source
KDTW METAR 2021/09/28 15:53 UTC NOAA

KDTW 281553Z 04007KT 10SM FEW030 19/11 A3003 RMK AO2 SLP166 T01940106


Station Type Date Time Source
KDTW Decoded METAR 2021/09/28 15:53 UTC NOAA

DETROIT METROPOLITAN, MI, United States (KDTW) 42-14N 83-20W 195M
Sep 28, 2021 - 11:53 AM EDT / 2021.09.28 1553 UTC
Wind: from the NE (040 degrees) at 8 MPH (7 KT):0
Visibility: 10 mile(s):0
Sky conditions: mostly clear
Temperature: 66.9 F (19.4 C)
Dew Point: 51.1 F (10.6 C)
Relative Humidity: 56%
Pressure (altimeter): 30.03 in. Hg (1016 hPa)
ob: KDTW 281553Z 04007KT 10SM FEW030 19/11 A3003 RMK AO2 SLP166 T01940106
cycle: 16

Station Type Date Time Source
KDTW TAF 2021/09/28 15:09 UTC NOAA

TAF
AMD KDTW 281507Z 2815/2918 05008KT P6SM SCT025
FM290100 VRB03KT P6SM SKC

Example: see airport list